Terminal Aerodrome Forecast
Issued by NWS Houston/Galveston, TX

Home | Current Version | Previous Version | Text Only | Print | Product List | Glossary On
Versions: 1 2 3 4 5 6 7 8 9 10 11 12 13 14 15 16 17 18 19 20 21 22 23 24 25
000
FTUS44 KHGX 072340
TAFGLS
TAF
KGLS 072340Z 0800/0824 05010KT P6SM BKN012 OVC018
     FM080300 04007KT P6SM -SHRA VCSH BKN007 OVC015
     FM081300 02024G33KT P6SM OVC010
     FM081600 02022G29KT P6SM OVC030=

USA.gov is the U.S. government's official web portal to all federal, state and local government web resources and services.